ANA243 RJTT-RJFF
Flight info
| Callsign | ANA243 |
|---|---|
| Flight time | 1h 29m |
| Altitude | 38000 |
| Route | GUSRO Y20 KIRIN |
| Aircraft | B77W/H-SDE1E2E3FGHIJ2J3J4J5M1RWXY/LB1D1 |
Departure
| Time | 2026-05-07 11:56 |
|---|---|
| Airport | Tokyo Haneda International Airport (RJTT) |
Arrival
| Time | 2026-05-07 13:26 |
|---|---|
| Airport | Fukuoka Airport (RJFF) |
| Time | Latitude | Longitude | Altitude | Speed | Heading |
|---|---|---|---|---|---|
| 2026-05-07 11:26 | 35.55054 | 139.79040 | 36 ft | 0 kts | 239° |
| 2026-05-07 11:39 | 35.55060 | 139.79053 | 36 ft | 2 kts | 239° |
| 2026-05-07 11:39 | 35.55067 | 139.79068 | 36 ft | 2 kts | 239° |
| 2026-05-07 11:40 | 35.55074 | 139.79085 | 36 ft | 2 kts | 259° |
| 2026-05-07 11:40 | 35.55074 | 139.79103 | 36 ft | 2 kts | 282° |
| 2026-05-07 11:40 | 35.55070 | 139.79120 | 36 ft | 2 kts | 301° |
| 2026-05-07 11:40 | 35.55060 | 139.79134 | 36 ft | 2 kts | 321° |
| 2026-05-07 11:41 | 35.55054 | 139.79140 | 36 ft | 1 kts | 331° |
| 2026-05-07 11:41 | 35.55052 | 139.79141 | 36 ft | 0 kts | 330° |
| 2026-05-07 11:43 | 35.55071 | 139.79128 | 36 ft | 8 kts | 329° |
| 2026-05-07 11:44 | 35.55152 | 139.79068 | 36 ft | 15 kts | 329° |
| 2026-05-07 11:44 | 35.55250 | 139.78996 | 36 ft | 17 kts | 332° |
| 2026-05-07 11:44 | 35.55363 | 139.78929 | 36 ft | 17 kts | 357° |
| 2026-05-07 11:44 | 35.55448 | 139.79036 | 36 ft | 17 kts | 42° |
| 2026-05-07 11:45 | 35.55563 | 139.79001 | 36 ft | 19 kts | 329° |
| 2026-05-07 11:45 | 35.55685 | 139.78914 | 36 ft | 21 kts | 329° |
| 2026-05-07 11:45 | 35.55826 | 139.78812 | 36 ft | 23 kts | 329° |
| 2026-05-07 11:45 | 35.55969 | 139.78709 | 36 ft | 24 kts | 329° |
| 2026-05-07 11:46 | 35.56105 | 139.78613 | 36 ft | 21 kts | 330° |
| 2026-05-07 11:46 | 35.56221 | 139.78531 | 36 ft | 11 kts | 330° |
| 2026-05-07 11:46 | 35.56272 | 139.78496 | 36 ft | 3 kts | 330° |
| 2026-05-07 11:46 | 35.56278 | 139.78491 | 36 ft | 0 kts | 330° |
| 2026-05-07 11:47 | 35.56279 | 139.78491 | 36 ft | 0 kts | 330° |
| 2026-05-07 11:48 | 35.56282 | 139.78488 | 36 ft | 2 kts | 330° |
| 2026-05-07 11:48 | 35.56326 | 139.78455 | 36 ft | 12 kts | 314° |
| 2026-05-07 11:48 | 35.56310 | 139.78317 | 36 ft | 21 kts | 242° |
| 2026-05-07 11:48 | 35.56226 | 139.78145 | 36 ft | 25 kts | 238° |
| 2026-05-07 11:49 | 35.56132 | 139.77953 | 36 ft | 25 kts | 239° |
| 2026-05-07 11:49 | 35.56044 | 139.77771 | 36 ft | 23 kts | 239° |
| 2026-05-07 11:49 | 35.55962 | 139.77600 | 36 ft | 22 kts | 242° |
| 2026-05-07 11:49 | 35.55898 | 139.77454 | 36 ft | 16 kts | 242° |
| 2026-05-07 11:50 | 35.55840 | 139.77342 | 36 ft | 14 kts | 225° |
| 2026-05-07 11:50 | 35.55763 | 139.77271 | 36 ft | 13 kts | 216° |
| 2026-05-07 11:50 | 35.55740 | 139.77251 | 36 ft | 0 kts | 215° |
| 2026-05-07 11:50 | 35.55738 | 139.77249 | 36 ft | 1 kts | 215° |
| 2026-05-07 11:51 | 35.55733 | 139.77245 | 36 ft | 0 kts | 215° |
| 2026-05-07 11:54 | 35.55718 | 139.77232 | 36 ft | 5 kts | 215° |
| 2026-05-07 11:55 | 35.55683 | 139.77202 | 36 ft | 6 kts | 215° |
| 2026-05-07 11:55 | 35.55646 | 139.77177 | 36 ft | 5 kts | 192° |
| 2026-05-07 11:55 | 35.55601 | 139.77185 | 36 ft | 7 kts | 156° |
| 2026-05-07 11:55 | 35.55557 | 139.77216 | 36 ft | 18 kts | 149° |
| 2026-05-07 11:56 | 35.55204 | 139.77469 | 36 ft | 98 kts | 149° |
| 2026-05-07 11:56 | 35.54410 | 139.78036 | 82 ft | 159 kts | 153° |
| 2026-05-07 11:56 | 35.53478 | 139.78700 | 874 ft | 157 kts | 154° |
| 2026-05-07 11:56 | 35.52508 | 139.79395 | 1531 ft | 169 kts | 154° |
| 2026-05-07 11:57 | 35.51449 | 139.80158 | 1962 ft | 192 kts | 155° |
| 2026-05-07 11:57 | 35.50200 | 139.81000 | 2453 ft | 213 kts | 161° |
| 2026-05-07 11:57 | 35.48708 | 139.81310 | 2989 ft | 226 kts | 191° |
| 2026-05-07 11:57 | 35.47197 | 139.80650 | 3566 ft | 244 kts | 210° |
| 2026-05-07 11:58 | 35.45707 | 139.79587 | 4487 ft | 250 kts | 212° |
| 2026-05-07 11:58 | 35.44240 | 139.78514 | 5521 ft | 251 kts | 212° |
| 2026-05-07 11:58 | 35.42874 | 139.77188 | 6293 ft | 260 kts | 233° |
| 2026-05-07 11:58 | 35.42151 | 139.75174 | 7235 ft | 264 kts | 260° |
| 2026-05-07 11:59 | 35.42295 | 139.72931 | 8127 ft | 273 kts | 286° |
| 2026-05-07 11:59 | 35.43294 | 139.70962 | 9023 ft | 282 kts | 312° |
| 2026-05-07 11:59 | 35.44938 | 139.69632 | 9882 ft | 292 kts | 330° |
| 2026-05-07 11:59 | 35.46796 | 139.68593 | 10579 ft | 304 kts | 332° |
| 2026-05-07 12:00 | 35.48806 | 139.67505 | 11116 ft | 323 kts | 332° |
| 2026-05-07 12:00 | 35.50908 | 139.66367 | 11714 ft | 339 kts | 332° |
| 2026-05-07 12:00 | 35.53107 | 139.65144 | 12309 ft | 353 kts | 328° |
| 2026-05-07 12:00 | 35.55147 | 139.63359 | 12854 ft | 364 kts | 313° |
| 2026-05-07 12:01 | 35.56783 | 139.60934 | 13448 ft | 374 kts | 300° |
| 2026-05-07 12:01 | 35.58012 | 139.58144 | 14329 ft | 378 kts | 292° |
| 2026-05-07 12:01 | 35.59138 | 139.55240 | 15396 ft | 380 kts | 292° |
| 2026-05-07 12:01 | 35.60142 | 139.52211 | 16392 ft | 382 kts | 285° |
| 2026-05-07 12:02 | 35.60751 | 139.49068 | 17208 ft | 388 kts | 279° |
| 2026-05-07 12:02 | 35.61269 | 139.45793 | 18032 ft | 395 kts | 279° |
| 2026-05-07 12:02 | 35.61787 | 139.42473 | 18988 ft | 399 kts | 279° |
| 2026-05-07 12:02 | 35.62308 | 139.39134 | 19943 ft | 402 kts | 279° |
| 2026-05-07 12:03 | 35.62830 | 139.35779 | 20779 ft | 408 kts | 279° |
| 2026-05-07 12:03 | 35.63364 | 139.32336 | 21642 ft | 412 kts | 278° |
| 2026-05-07 12:03 | 35.63905 | 139.28851 | 22469 ft | 417 kts | 278° |
| 2026-05-07 12:03 | 35.64450 | 139.25326 | 23251 ft | 423 kts | 278° |
| 2026-05-07 12:04 | 35.64993 | 139.21815 | 23983 ft | 429 kts | 278° |
| 2026-05-07 12:04 | 35.65552 | 139.18188 | 24777 ft | 433 kts | 277° |
| 2026-05-07 12:04 | 35.66038 | 139.14572 | 25569 ft | 435 kts | 272° |
| 2026-05-07 12:04 | 35.66116 | 139.10846 | 26277 ft | 438 kts | 265° |
| 2026-05-07 12:05 | 35.65964 | 139.07077 | 26996 ft | 443 kts | 264° |
| 2026-05-07 12:05 | 35.65797 | 139.03337 | 27769 ft | 446 kts | 264° |
| 2026-05-07 12:05 | 35.65624 | 138.99512 | 28539 ft | 449 kts | 264° |
| 2026-05-07 12:05 | 35.65451 | 138.95685 | 29209 ft | 454 kts | 264° |
| 2026-05-07 12:06 | 35.65274 | 138.91806 | 29848 ft | 460 kts | 264° |
| 2026-05-07 12:06 | 35.65093 | 138.87840 | 30536 ft | 464 kts | 264° |
| 2026-05-07 12:06 | 35.64912 | 138.83907 | 31257 ft | 466 kts | 264° |
| 2026-05-07 12:06 | 35.64731 | 138.79974 | 32059 ft | 465 kts | 264° |
| 2026-05-07 12:07 | 35.64547 | 138.76007 | 32987 ft | 460 kts | 264° |
| 2026-05-07 12:07 | 35.64368 | 138.72165 | 33872 ft | 457 kts | 264° |
| 2026-05-07 12:07 | 35.64185 | 138.68286 | 34738 ft | 454 kts | 264° |
| 2026-05-07 12:07 | 35.63995 | 138.64369 | 35542 ft | 452 kts | 264° |
| 2026-05-07 12:08 | 35.63795 | 138.60521 | 36304 ft | 449 kts | 264° |
| 2026-05-07 12:08 | 35.63594 | 138.56689 | 36959 ft | 448 kts | 264° |
| 2026-05-07 12:08 | 35.63392 | 138.52841 | 37496 ft | 448 kts | 264° |
| 2026-05-07 12:08 | 35.63192 | 138.49062 | 37941 ft | 448 kts | 264° |
| 2026-05-07 12:09 | 35.62989 | 138.45253 | 37968 ft | 450 kts | 264° |
| 2026-05-07 12:09 | 35.62581 | 138.37634 | 38004 ft | 447 kts | 264° |
| 2026-05-07 12:10 | 35.62174 | 138.30098 | 38037 ft | 434 kts | 264° |
| 2026-05-07 12:10 | 35.61775 | 138.22803 | 38066 ft | 429 kts | 264° |
| 2026-05-07 12:11 | 35.61368 | 138.15460 | 38055 ft | 430 kts | 264° |
| 2026-05-07 12:11 | 35.60960 | 138.08168 | 38046 ft | 429 kts | 264° |
| 2026-05-07 12:12 | 35.60548 | 138.00877 | 38036 ft | 429 kts | 264° |
| 2026-05-07 12:12 | 35.60130 | 137.93565 | 38033 ft | 428 kts | 264° |
| 2026-05-07 12:13 | 35.59707 | 137.86256 | 38030 ft | 429 kts | 264° |
| 2026-05-07 12:13 | 35.59281 | 137.78958 | 38019 ft | 429 kts | 264° |
| 2026-05-07 12:14 | 35.58751 | 137.71640 | 38015 ft | 430 kts | 263° |
| 2026-05-07 12:14 | 35.58204 | 137.64334 | 37999 ft | 428 kts | 263° |
| 2026-05-07 12:15 | 35.57660 | 137.57092 | 37987 ft | 428 kts | 263° |
| 2026-05-07 12:15 | 35.56696 | 137.49919 | 37979 ft | 426 kts | 255° |
| 2026-05-07 12:16 | 35.55173 | 137.42943 | 37964 ft | 426 kts | 254° |
| 2026-05-07 12:16 | 35.53637 | 137.35945 | 37972 ft | 426 kts | 254° |
| 2026-05-07 12:17 | 35.52096 | 137.28943 | 37972 ft | 426 kts | 253° |
| 2026-05-07 12:17 | 35.50551 | 137.21939 | 37968 ft | 425 kts | 253° |
| 2026-05-07 12:18 | 35.49012 | 137.14987 | 37960 ft | 426 kts | 253° |
| 2026-05-07 12:18 | 35.47460 | 137.07991 | 37951 ft | 426 kts | 253° |
| 2026-05-07 12:19 | 35.45899 | 137.00981 | 37938 ft | 425 kts | 253° |
| 2026-05-07 12:19 | 35.44342 | 136.94005 | 37930 ft | 425 kts | 253° |
| 2026-05-07 12:20 | 35.42784 | 136.87050 | 37930 ft | 424 kts | 253° |
| 2026-05-07 12:20 | 35.41224 | 136.80098 | 37921 ft | 424 kts | 253° |
| 2026-05-07 12:21 | 35.39662 | 136.73166 | 37920 ft | 424 kts | 253° |
| 2026-05-07 12:21 | 35.38090 | 136.66206 | 37931 ft | 423 kts | 253° |
| 2026-05-07 12:22 | 35.36526 | 136.59303 | 37944 ft | 423 kts | 253° |
| 2026-05-07 12:22 | 35.34954 | 136.52383 | 37948 ft | 422 kts | 253° |
| 2026-05-07 12:23 | 35.33374 | 136.45451 | 37951 ft | 424 kts | 253° |
| 2026-05-07 12:23 | 35.31789 | 136.38513 | 37938 ft | 422 kts | 253° |
| 2026-05-07 12:24 | 35.30212 | 136.31628 | 37931 ft | 421 kts | 253° |
| 2026-05-07 12:24 | 35.28627 | 136.24727 | 37924 ft | 422 kts | 253° |
| 2026-05-07 12:25 | 35.27037 | 136.17821 | 37923 ft | 421 kts | 253° |
| 2026-05-07 12:25 | 35.25447 | 136.10941 | 37928 ft | 421 kts | 253° |
| 2026-05-07 12:26 | 35.23853 | 136.04060 | 37925 ft | 420 kts | 253° |
| 2026-05-07 12:26 | 35.22260 | 135.97203 | 37918 ft | 421 kts | 253° |
| 2026-05-07 12:27 | 35.20662 | 135.90344 | 37932 ft | 421 kts | 253° |
| 2026-05-07 12:27 | 35.19050 | 135.83444 | 37939 ft | 420 kts | 253° |
| 2026-05-07 12:28 | 35.17541 | 135.76521 | 37953 ft | 428 kts | 257° |
| 2026-05-07 12:28 | 35.16400 | 135.69440 | 37944 ft | 426 kts | 257° |
| 2026-05-07 12:29 | 35.15239 | 135.62363 | 37937 ft | 427 kts | 257° |
| 2026-05-07 12:29 | 35.14057 | 135.55276 | 37933 ft | 427 kts | 257° |
| 2026-05-07 12:30 | 35.12866 | 135.48210 | 37939 ft | 425 kts | 257° |
| 2026-05-07 12:30 | 35.11662 | 135.41116 | 37935 ft | 426 kts | 257° |
| 2026-05-07 12:31 | 35.10475 | 135.34166 | 37934 ft | 425 kts | 256° |
| 2026-05-07 12:31 | 35.09267 | 135.27116 | 37941 ft | 425 kts | 256° |
| 2026-05-07 12:32 | 35.08044 | 135.20010 | 37944 ft | 426 kts | 256° |
| 2026-05-07 12:32 | 35.06834 | 135.13010 | 37934 ft | 424 kts | 256° |
| 2026-05-07 12:33 | 35.05006 | 135.02481 | 37912 ft | 424 kts | 256° |
| 2026-05-07 12:33 | 35.03774 | 134.95418 | 37906 ft | 425 kts | 256° |
| 2026-05-07 12:34 | 35.02542 | 134.88382 | 37905 ft | 425 kts | 257° |
| 2026-05-07 12:34 | 35.01309 | 134.81363 | 37907 ft | 425 kts | 257° |
| 2026-05-07 12:35 | 35.00064 | 134.74304 | 37903 ft | 423 kts | 257° |
| 2026-05-07 12:35 | 34.98828 | 134.67354 | 37902 ft | 424 kts | 256° |
| 2026-05-07 12:36 | 34.97452 | 134.60381 | 37909 ft | 424 kts | 255° |
| 2026-05-07 12:36 | 34.96068 | 134.53410 | 37910 ft | 422 kts | 255° |
| 2026-05-07 12:37 | 34.94690 | 134.46468 | 37905 ft | 423 kts | 256° |
| 2026-05-07 12:37 | 34.93302 | 134.39487 | 37906 ft | 424 kts | 256° |
| 2026-05-07 12:38 | 34.91918 | 134.32544 | 37910 ft | 422 kts | 255° |
| 2026-05-07 12:38 | 34.90533 | 134.25613 | 37910 ft | 423 kts | 255° |
| 2026-05-07 12:39 | 34.89145 | 134.18690 | 37916 ft | 422 kts | 255° |
| 2026-05-07 12:39 | 34.87750 | 134.11752 | 37916 ft | 422 kts | 256° |
| 2026-05-07 12:40 | 34.86358 | 134.04852 | 37916 ft | 422 kts | 255° |
| 2026-05-07 12:40 | 34.84954 | 133.97917 | 37916 ft | 421 kts | 256° |
| 2026-05-07 12:41 | 34.83555 | 133.91023 | 37922 ft | 420 kts | 256° |
| 2026-05-07 12:41 | 34.82146 | 133.84111 | 37928 ft | 422 kts | 255° |
| 2026-05-07 12:42 | 34.80698 | 133.77231 | 37933 ft | 423 kts | 255° |
| 2026-05-07 12:42 | 34.79225 | 133.70258 | 37928 ft | 422 kts | 255° |
| 2026-05-07 12:43 | 34.77773 | 133.63400 | 37937 ft | 423 kts | 255° |
| 2026-05-07 12:43 | 34.76306 | 133.56491 | 37933 ft | 421 kts | 255° |
| 2026-05-07 12:44 | 34.74839 | 133.49600 | 37933 ft | 423 kts | 255° |
| 2026-05-07 12:44 | 34.73363 | 133.42685 | 37921 ft | 423 kts | 255° |
| 2026-05-07 12:45 | 34.71885 | 133.35782 | 37940 ft | 423 kts | 255° |
| 2026-05-07 12:45 | 34.70399 | 133.28862 | 37949 ft | 424 kts | 255° |
| 2026-05-07 12:46 | 34.68910 | 133.21950 | 37951 ft | 422 kts | 255° |
| 2026-05-07 12:46 | 34.67426 | 133.15080 | 37942 ft | 423 kts | 255° |
| 2026-05-07 12:47 | 34.65928 | 133.08168 | 37944 ft | 423 kts | 255° |
| 2026-05-07 12:47 | 34.64437 | 133.01306 | 37942 ft | 422 kts | 255° |
| 2026-05-07 12:48 | 34.62937 | 132.94421 | 37938 ft | 422 kts | 255° |
| 2026-05-07 12:48 | 34.61435 | 132.87553 | 37938 ft | 422 kts | 255° |
| 2026-05-07 12:49 | 34.59926 | 132.80670 | 37940 ft | 421 kts | 255° |
| 2026-05-07 12:49 | 34.58425 | 132.73843 | 37937 ft | 420 kts | 255° |
| 2026-05-07 12:50 | 34.56908 | 132.66965 | 37934 ft | 421 kts | 256° |
| 2026-05-07 12:50 | 34.55730 | 132.60069 | 37927 ft | 423 kts | 266° |
| 2026-05-07 12:51 | 34.56438 | 132.52920 | 37924 ft | 430 kts | 284° |
| 2026-05-07 12:51 | 34.59138 | 132.46458 | 37923 ft | 441 kts | 301° |
| 2026-05-07 12:52 | 34.62794 | 132.40453 | 37919 ft | 440 kts | 302° |
| 2026-05-07 12:52 | 34.66456 | 132.34514 | 37930 ft | 440 kts | 302° |
| 2026-05-07 12:53 | 34.70108 | 132.28584 | 37940 ft | 440 kts | 302° |
| 2026-05-07 12:53 | 34.73210 | 132.22293 | 37937 ft | 429 kts | 287° |
| 2026-05-07 12:54 | 34.74354 | 132.15315 | 37932 ft | 425 kts | 268° |
| 2026-05-07 12:54 | 34.73416 | 132.08316 | 37920 ft | 420 kts | 250° |
| 2026-05-07 12:55 | 34.70760 | 132.02014 | 37917 ft | 420 kts | 242° |
| 2026-05-07 12:55 | 34.67819 | 131.95905 | 37919 ft | 419 kts | 242° |
| 2026-05-07 12:56 | 34.64893 | 131.89838 | 37438 ft | 412 kts | 242° |
| 2026-05-07 12:56 | 34.63445 | 131.86829 | 36544 ft | 416 kts | 242° |
| 2026-05-07 12:56 | 34.61993 | 131.83806 | 35285 ft | 425 kts | 242° |
| 2026-05-07 12:57 | 34.60489 | 131.80655 | 33878 ft | 437 kts | 242° |
| 2026-05-07 12:57 | 34.58979 | 131.77464 | 32615 ft | 445 kts | 242° |
| 2026-05-07 12:57 | 34.57445 | 131.74199 | 31587 ft | 446 kts | 242° |
| 2026-05-07 12:57 | 34.55947 | 131.70996 | 30812 ft | 432 kts | 242° |
| 2026-05-07 12:58 | 34.54492 | 131.67877 | 30269 ft | 415 kts | 242° |
| 2026-05-07 12:58 | 34.53106 | 131.64911 | 29747 ft | 399 kts | 242° |
| 2026-05-07 12:58 | 34.51760 | 131.62033 | 29413 ft | 388 kts | 242° |
| 2026-05-07 12:58 | 34.50443 | 131.59221 | 29010 ft | 378 kts | 242° |
| 2026-05-07 12:59 | 34.49171 | 131.56494 | 28465 ft | 372 kts | 242° |
| 2026-05-07 12:59 | 34.47918 | 131.53799 | 27877 ft | 369 kts | 242° |
| 2026-05-07 12:59 | 34.46656 | 131.51091 | 27258 ft | 367 kts | 242° |
| 2026-05-07 12:59 | 34.45413 | 131.48439 | 26665 ft | 365 kts | 242° |
| 2026-05-07 13:00 | 34.44170 | 131.45773 | 26125 ft | 360 kts | 242° |
| 2026-05-07 13:00 | 34.42950 | 131.43141 | 25621 ft | 356 kts | 242° |
| 2026-05-07 13:00 | 34.41753 | 131.40562 | 25074 ft | 352 kts | 242° |
| 2026-05-07 13:00 | 34.40560 | 131.38007 | 24507 ft | 349 kts | 242° |
| 2026-05-07 13:01 | 34.39372 | 131.35460 | 23973 ft | 345 kts | 242° |
| 2026-05-07 13:01 | 34.38202 | 131.32968 | 23587 ft | 341 kts | 242° |
| 2026-05-07 13:01 | 34.37041 | 131.30499 | 23164 ft | 338 kts | 242° |
| 2026-05-07 13:01 | 34.35884 | 131.28041 | 22712 ft | 335 kts | 241° |
| 2026-05-07 13:02 | 34.34715 | 131.25624 | 22273 ft | 334 kts | 238° |
| 2026-05-07 13:02 | 34.33328 | 131.23381 | 21830 ft | 332 kts | 234° |
| 2026-05-07 13:02 | 34.31900 | 131.21191 | 21448 ft | 329 kts | 234° |
| 2026-05-07 13:02 | 34.30483 | 131.19026 | 21079 ft | 329 kts | 234° |
| 2026-05-07 13:03 | 34.29063 | 131.16855 | 20703 ft | 329 kts | 233° |
| 2026-05-07 13:03 | 34.27647 | 131.14691 | 20338 ft | 327 kts | 233° |
| 2026-05-07 13:03 | 34.26259 | 131.12572 | 20052 ft | 323 kts | 233° |
| 2026-05-07 13:03 | 34.24852 | 131.10426 | 19766 ft | 323 kts | 233° |
| 2026-05-07 13:04 | 34.23475 | 131.08327 | 19481 ft | 321 kts | 233° |
| 2026-05-07 13:04 | 34.22081 | 131.06201 | 19005 ft | 321 kts | 233° |
| 2026-05-07 13:04 | 34.20702 | 131.04102 | 18494 ft | 321 kts | 233° |
| 2026-05-07 13:04 | 34.19340 | 131.02004 | 18018 ft | 320 kts | 232° |
| 2026-05-07 13:05 | 34.17747 | 131.00099 | 17565 ft | 320 kts | 223° |
| 2026-05-07 13:05 | 34.16038 | 130.98419 | 17265 ft | 313 kts | 221° |
| 2026-05-07 13:05 | 34.14372 | 130.96797 | 16870 ft | 311 kts | 222° |
| 2026-05-07 13:05 | 34.12675 | 130.95142 | 16359 ft | 312 kts | 222° |
| 2026-05-07 13:06 | 34.11006 | 130.93509 | 15880 ft | 312 kts | 222° |
| 2026-05-07 13:06 | 34.09314 | 130.91850 | 15418 ft | 311 kts | 222° |
| 2026-05-07 13:06 | 34.07654 | 130.90213 | 14998 ft | 310 kts | 222° |
| 2026-05-07 13:06 | 34.05998 | 130.88583 | 14579 ft | 308 kts | 222° |
| 2026-05-07 13:07 | 34.04319 | 130.86926 | 14115 ft | 308 kts | 222° |
| 2026-05-07 13:07 | 34.02689 | 130.85319 | 13737 ft | 305 kts | 222° |
| 2026-05-07 13:07 | 34.01055 | 130.83704 | 13415 ft | 305 kts | 222° |
| 2026-05-07 13:07 | 33.99406 | 130.82068 | 13118 ft | 306 kts | 222° |
| 2026-05-07 13:08 | 33.97768 | 130.80453 | 12851 ft | 304 kts | 222° |
| 2026-05-07 13:08 | 33.96129 | 130.78836 | 12578 ft | 303 kts | 222° |
| 2026-05-07 13:08 | 33.94511 | 130.77234 | 12288 ft | 303 kts | 222° |
| 2026-05-07 13:08 | 33.93079 | 130.75380 | 11955 ft | 300 kts | 241° |
| 2026-05-07 13:09 | 33.92420 | 130.73018 | 11627 ft | 300 kts | 264° |
| 2026-05-07 13:09 | 33.92429 | 130.70544 | 11327 ft | 295 kts | 271° |
| 2026-05-07 13:09 | 33.92553 | 130.68117 | 11026 ft | 290 kts | 272° |
| 2026-05-07 13:09 | 33.92683 | 130.65692 | 10798 ft | 283 kts | 272° |
| 2026-05-07 13:10 | 33.92808 | 130.63377 | 10668 ft | 273 kts | 272° |
| 2026-05-07 13:10 | 33.92927 | 130.61148 | 10532 ft | 263 kts | 272° |
| 2026-05-07 13:10 | 33.93044 | 130.58964 | 10275 ft | 260 kts | 272° |
| 2026-05-07 13:10 | 33.93158 | 130.56812 | 9942 ft | 259 kts | 272° |
| 2026-05-07 13:11 | 33.93270 | 130.54672 | 9599 ft | 258 kts | 272° |
| 2026-05-07 13:11 | 33.93385 | 130.52537 | 9289 ft | 256 kts | 272° |
| 2026-05-07 13:11 | 33.93501 | 130.50401 | 8915 ft | 257 kts | 272° |
| 2026-05-07 13:11 | 33.93613 | 130.48251 | 8581 ft | 256 kts | 272° |
| 2026-05-07 13:12 | 33.93726 | 130.46137 | 8276 ft | 254 kts | 272° |
| 2026-05-07 13:12 | 33.93837 | 130.44002 | 7904 ft | 255 kts | 272° |
| 2026-05-07 13:12 | 33.93945 | 130.41901 | 7586 ft | 254 kts | 272° |
| 2026-05-07 13:12 | 33.94054 | 130.39774 | 7268 ft | 253 kts | 272° |
| 2026-05-07 13:13 | 33.94161 | 130.37679 | 7017 ft | 249 kts | 272° |
| 2026-05-07 13:13 | 33.94267 | 130.35579 | 6992 ft | 252 kts | 272° |
| 2026-05-07 13:13 | 33.94373 | 130.33479 | 6986 ft | 251 kts | 271° |
| 2026-05-07 13:13 | 33.94477 | 130.31395 | 6981 ft | 252 kts | 271° |
| 2026-05-07 13:14 | 33.94583 | 130.29271 | 6978 ft | 252 kts | 271° |
| 2026-05-07 13:14 | 33.94688 | 130.27182 | 6972 ft | 251 kts | 271° |
| 2026-05-07 13:14 | 33.94617 | 130.25075 | 6962 ft | 250 kts | 253° |
| 2026-05-07 13:14 | 33.93771 | 130.23285 | 6965 ft | 251 kts | 225° |
| 2026-05-07 13:15 | 33.92290 | 130.22185 | 6974 ft | 254 kts | 204° |
| 2026-05-07 13:15 | 33.90622 | 130.21457 | 6974 ft | 251 kts | 202° |
| 2026-05-07 13:15 | 33.88971 | 130.20778 | 6970 ft | 247 kts | 202° |
| 2026-05-07 13:15 | 33.87344 | 130.20108 | 6970 ft | 246 kts | 202° |
| 2026-05-07 13:16 | 33.85749 | 130.19449 | 6764 ft | 244 kts | 202° |
| 2026-05-07 13:16 | 33.84135 | 130.18776 | 6382 ft | 245 kts | 202° |
| 2026-05-07 13:16 | 33.82529 | 130.18102 | 6060 ft | 244 kts | 202° |
| 2026-05-07 13:16 | 33.81439 | 130.17639 | 5860 ft | 242 kts | 202° |
| 2026-05-07 13:17 | 33.79818 | 130.17097 | 5535 ft | 243 kts | 186° |
| 2026-05-07 13:17 | 33.78147 | 130.17470 | 5139 ft | 250 kts | 156° |
| 2026-05-07 13:17 | 33.76729 | 130.18698 | 4800 ft | 252 kts | 143° |
| 2026-05-07 13:17 | 33.75422 | 130.20065 | 4436 ft | 249 kts | 142° |
| 2026-05-07 13:18 | 33.74123 | 130.21445 | 4020 ft | 248 kts | 142° |
| 2026-05-07 13:18 | 33.72845 | 130.22809 | 3697 ft | 246 kts | 142° |
| 2026-05-07 13:18 | 33.71579 | 130.24156 | 3397 ft | 244 kts | 142° |
| 2026-05-07 13:18 | 33.70302 | 130.25514 | 3053 ft | 243 kts | 142° |
| 2026-05-07 13:19 | 33.69040 | 130.26852 | 2735 ft | 241 kts | 142° |
| 2026-05-07 13:19 | 33.67792 | 130.28168 | 2417 ft | 234 kts | 142° |
| 2026-05-07 13:19 | 33.66611 | 130.29478 | 2125 ft | 229 kts | 134° |
| 2026-05-07 13:19 | 33.65612 | 130.30881 | 2004 ft | 215 kts | 134° |
| 2026-05-07 13:20 | 33.64657 | 130.32165 | 1996 ft | 200 kts | 135° |
| 2026-05-07 13:20 | 33.63728 | 130.33406 | 1822 ft | 198 kts | 135° |
| 2026-05-07 13:20 | 33.62808 | 130.34634 | 1626 ft | 195 kts | 134° |
| 2026-05-07 13:20 | 33.61915 | 130.35826 | 1510 ft | 188 kts | 134° |
| 2026-05-07 13:21 | 33.60972 | 130.36905 | 1490 ft | 186 kts | 150° |
| 2026-05-07 13:21 | 33.59847 | 130.37705 | 1495 ft | 186 kts | 152° |
| 2026-05-07 13:21 | 33.58729 | 130.38480 | 1495 ft | 186 kts | 152° |
| 2026-05-07 13:21 | 33.57608 | 130.39258 | 1493 ft | 186 kts | 152° |
| 2026-05-07 13:22 | 33.56493 | 130.40030 | 1499 ft | 183 kts | 152° |
| 2026-05-07 13:22 | 33.55414 | 130.40779 | 1492 ft | 171 kts | 152° |
| 2026-05-07 13:22 | 33.54403 | 130.41479 | 1499 ft | 163 kts | 153° |
| 2026-05-07 13:22 | 33.53421 | 130.42160 | 1492 ft | 161 kts | 153° |
| 2026-05-07 13:23 | 33.52473 | 130.42821 | 1496 ft | 155 kts | 150° |
| 2026-05-07 13:23 | 33.51820 | 130.43816 | 1490 ft | 157 kts | 105° |
| 2026-05-07 13:23 | 33.51971 | 130.45114 | 1446 ft | 163 kts | 63° |
| 2026-05-07 13:23 | 33.52418 | 130.46069 | 1290 ft | 162 kts | 60° |
| 2026-05-07 13:24 | 33.52938 | 130.47177 | 1095 ft | 158 kts | 60° |
| 2026-05-07 13:24 | 33.53784 | 130.47897 | 807 ft | 152 kts | 5° |
| 2026-05-07 13:24 | 33.54785 | 130.47630 | 596 ft | 149 kts | 334° |
| 2026-05-07 13:24 | 33.55704 | 130.47043 | 428 ft | 147 kts | 329° |
| 2026-05-07 13:25 | 33.56591 | 130.46436 | 273 ft | 146 kts | 330° |
| 2026-05-07 13:25 | 33.57469 | 130.45831 | 97 ft | 146 kts | 330° |
| 2026-05-07 13:25 | 33.58320 | 130.45254 | 50 ft | 118 kts | 328° |
| 2026-05-07 13:25 | 33.58838 | 130.44904 | 50 ft | 57 kts | 330° |
| 2026-05-07 13:26 | 33.59116 | 130.44777 | 50 ft | 33 kts | 353° |
| 2026-05-07 13:26 | 33.59292 | 130.44769 | 50 ft | 22 kts | 0° |
| 2026-05-07 13:26 | 33.59417 | 130.44736 | 50 ft | 17 kts | 332° |
| 2026-05-07 13:26 | 33.59517 | 130.44667 | 50 ft | 15 kts | 328° |
| 2026-05-07 13:27 | 33.59588 | 130.44667 | 50 ft | 10 kts | 60° |
| 2026-05-07 13:27 | 33.59620 | 130.44740 | 50 ft | 5 kts | 59° |
| 2026-05-07 13:27 | 33.59638 | 130.44777 | 50 ft | 4 kts | 60° |
| 2026-05-07 13:27 | 33.59642 | 130.44785 | 50 ft | 0 kts | 60° |